Imbe, Brazil
Current Conditions -  °F | °C
As of 10:00 PM on Friday 19 Dec 2014 (Local Time) from SBCO Reporting Station
Clear Clear  
Wind Chill: 73°   Ceiling: Unl
Heat Index: 73°   Visibility: 6mi
Dew Point: 70°   Wind: 12mph
Humidity: 88%   Direction: 150°SSE
Pressure: 29.71"   Gusts: NA
Location:  29.98°S, 50.13°W
Report Text: SBCO 200000Z 15010KT CAVOK 23/21 Q1006
Loading
Personal Weather Stations






























Interactive Weather Map New forecast layout! Learn more

10-Day Weather Forecast

Advertisements
Track Severe Weather on mobile